Home PIREPS Pireps

Flight BEL554

  • Submitted By: Marc Toussaint
  • Departure Airport: Hong Kong International Airport (VHHH)
  • Arrival Airport: Honolulu International Airport (PHNL)
  • Aircraft: A330-301 (OO-SFO)
  • Flight Time: 10.38
  • Date Submitted: 04/02/2018
  • Route: VHHH-PHNL
  • Status: Accepted
Flight Details
Gross Revenue:
(234 load / € 0.00 per unit
€ 0.00
Fuel Cost:
(65278 fuel used @ 0 / unit)
€ 0.00

Additional Log Information:

View Log

Aircraft Used in flight is Delta Hawaiian B777-200LR
23:59 Brakes are On
00:01 Brakes are Released
00:03 Brakes are On
00:04 Brakes are Released
00:13 You Took off @ 202 Knots and Flaps at Position 2
Departure Weather
VHHH 032200Z 05014KT 9000 NSC 09/M02 Q1025 NOSIGrn
00:13 Landing Gear Up @ 209 Knots and 100 Feet
00:14 Stalling
00:14 Recovered from Stall
00:19 You are Airborne and your Beacons are off
00:19 You are Airborne and your Navigation Lights are off
10:15 You exceeded maximum bank angle
10:30 Landing Gear Down @ 207 Knots and 840 Feet
10:33 You Landed @ 142 Knots and with -500 Vertical Speed
Arrival Weather
PHNL 040753Z 18008KT 10SM FEW022 FEW040 SCT110 26/21 A2995 RMK AO2 SLP143 T02560206rn
10:37 Brakes are On
10:37 Paused
10:37 Brussels Bel-Track1.0.1.2

Route Map

Corporate About Us Our Team Vacancies Information Fleet Route Network Rules and Regulations Operations Flight Schedules Event Center Tours Partners IVAO Vatsim Acars dev FSCB

fb Users Online Belgium Glenn Sonck,
1 Pilot(s) and 148 Guest(s) Online
CMS by phpVMS - Design by Crazycreatives.com - Copyright © 2018 - Brussels Airlines Virtual